Time;durP1;ratioP1;P1;durP2;ratioP2;P2;SDS_P1;SDS_P2;PMS_P1;PMS_P2;Temp;Humidity;BMP_temperature;BMP_pressure;BME280_temperature;BME280_humidity;BME280_pressure;Samples;Min_cycle;Max_cycle;Signal;HPM_P1;HPM_P2
2024/01/31 00:01:09;;;;;;;24.37;17.00;;;;;;;-0.78;53.98;96638.94;5021399;28;20305;-73
2024/01/31 00:03:34;;;;;;;24.47;17.83;;;;;;;-0.75;54.14;96636.28;5026386;28;20390;-75
2024/01/31 00:06:00;;;;;;;24.27;17.77;;;;;;;-0.81;53.86;96633.88;5024847;28;20316;-73
2024/01/31 00:08:25;;;;;;;24.17;16.40;;;;;;;-0.87;54.33;96642.66;5021858;28;20190;-73
2024/01/31 00:10:51;;;;;;;21.53;16.57;;;;;;;-0.84;53.88;96639.13;5026468;28;20219;-73
2024/01/31 00:13:16;;;;;;;24.23;16.40;;;;;;;-1.11;54.56;96636.41;5024439;28;20221;-71
2024/01/31 00:15:41;;;;;;;21.90;16.13;;;;;;;-1.01;54.73;96647.34;5029001;28;20285;-71
2024/01/31 00:18:07;;;;;;;20.97;16.70;;;;;;;-0.91;54.23;96646.19;5018644;28;20195;-71
2024/01/31 00:20:32;;;;;;;21.17;14.87;;;;;;;-1.04;54.62;96642.25;5029417;28;20190;-71
2024/01/31 00:22:58;;;;;;;19.33;14.13;;;;;;;-1.19;54.82;96635.78;5022203;28;20313;-71
2024/01/31 00:25:23;;;;;;;17.93;13.90;;;;;;;-1.28;55.09;96639.44;5035510;28;20222;-73
2024/01/31 00:27:49;;;;;;;19.17;14.73;;;;;;;-1.19;55.07;96635.78;5040556;28;20313;-73
2024/01/31 00:30:14;;;;;;;20.07;13.30;;;;;;;-1.25;54.67;96631.63;5020115;28;20190;-74
2024/01/31 00:32:40;;;;;;;20.53;13.40;;;;;;;-1.46;55.62;96645.09;5023875;28;20210;-75
2024/01/31 00:35:06;;;;;;;19.03;12.53;;;;;;;-1.57;55.67;96635.03;5021157;28;20249;-72
2024/01/31 00:37:31;;;;;;;16.70;13.27;;;;;;;-1.70;56.21;96638.81;5050395;28;20262;-72
2024/01/31 00:39:57;;;;;;;18.37;13.70;;;;;;;-1.50;56.06;96638.28;5026084;28;20256;-74
2024/01/31 00:42:22;;;;;;;17.27;12.00;;;;;;;-1.35;55.63;96628.44;5023552;28;20217;-75
2024/01/31 00:44:47;;;;;;;17.60;12.67;;;;;;;-1.21;55.30;96627.22;5021076;28;20187;-71
2024/01/31 00:47:13;;;;;;;17.70;12.70;;;;;;;-1.18;54.90;96638.28;5054408;28;20237;-72
2024/01/31 00:49:40;;;;;;;18.53;13.40;;;;;;;-1.26;54.91;96623.91;5024368;28;20241;-72
2024/01/31 00:52:06;;;;;;;18.27;12.90;;;;;;;-1.18;54.70;96619.38;5050880;28;20313;-73
2024/01/31 00:54:31;;;;;;;16.17;11.93;;;;;;;-1.00;54.51;96628.38;5025149;28;20361;-74
2024/01/31 00:56:57;;;;;;;17.87;12.23;;;;;;;-1.08;54.89;96626.00;5008186;28;20285;-71
2024/01/31 00:59:22;;;;;;;17.73;12.93;;;;;;;-1.27;54.87;96615.31;5019865;28;20218;-70
2024/01/31 01:01:47;;;;;;;16.17;12.33;;;;;;;-1.21;55.11;96620.31;5019225;28;20222;-71
2024/01/31 01:04:13;;;;;;;16.97;11.93;;;;;;;-1.20;54.97;96626.34;5019685;28;20215;-74
2024/01/31 01:06:41;;;;;;;15.70;12.43;;;;;;;-1.10;54.65;96635.50;5024044;28;20249;-72
2024/01/31 01:09:07;;;;;;;16.00;13.37;;;;;;;-1.23;54.98;96623.81;5050738;28;20191;-73
2024/01/31 01:11:33;;;;;;;15.20;11.90;;;;;;;-1.16;54.71;96625.38;5022712;28;20190;-73
2024/01/31 01:13:59;;;;;;;17.57;13.00;;;;;;;-1.18;54.96;96616.81;5022106;28;20237;-73
2024/01/31 01:16:24;;;;;;;17.37;13.13;;;;;;;-1.38;54.95;96615.59;5026336;28;20214;-73
2024/01/31 01:18:49;;;;;;;15.00;11.73;;;;;;;-1.39;55.42;96616.50;5023227;28;20218;-74
2024/01/31 01:21:15;;;;;;;16.60;12.73;;;;;;;-1.23;55.09;96619.53;5022472;28;20186;-72
2024/01/31 01:23:40;;;;;;;16.47;13.00;;;;;;;-1.24;55.01;96612.66;5020854;28;20187;-72
2024/01/31 01:26:06;;;;;;;17.50;13.00;;;;;;;-1.21;54.79;96619.47;5020428;28;20245;-72
2024/01/31 01:28:31;;;;;;;20.87;14.07;;;;;;;-1.18;54.93;96606.47;5022543;28;20225;-72
2024/01/31 01:30:56;;;;;;;16.10;13.00;;;;;;;-1.20;54.86;96605.69;5019382;28;20218;-72
2024/01/31 01:33:22;;;;;;;16.97;13.27;;;;;;;-1.24;54.99;96604.06;5024032;28;20223;-72
2024/01/31 01:35:47;;;;;;;19.13;13.03;;;;;;;-1.25;54.91;96603.22;5025162;28;20222;-72
2024/01/31 01:38:13;;;;;;;19.37;14.30;;;;;;;-1.41;55.41;96602.78;5026419;28;20219;-73
2024/01/31 01:40:45;;;;;;;19.03;14.40;;;;;;;-1.30;55.11;96599.94;5020801;28;20218;-73
2024/01/31 01:43:17;;;;;;;17.67;13.73;;;;;;;-1.24;54.87;96610.06;5019446;28;20222;-71
2024/01/31 01:45:43;;;;;;;16.50;13.00;;;;;;;-1.29;54.62;96595.59;5033772;28;20249;-75
2024/01/31 01:48:09;;;;;;;17.90;13.00;;;;;;;-1.38;55.10;96604.44;5048280;28;20194;-74
2024/01/31 01:50:35;;;;;;;18.03;13.40;;;;;;;-1.35;54.99;96600.03;5026763;28;20186;-73
2024/01/31 01:53:01;;;;;;;18.47;14.23;;;;;;;-1.53;55.37;96605.69;5021842;28;20234;-73
2024/01/31 01:55:27;;;;;;;17.37;12.70;;;;;;;-1.77;56.09;96609.72;5017567;28;20250;-74
2024/01/31 01:57:53;;;;;;;17.43;13.37;;;;;;;-1.57;55.45;96594.59;5052453;28;20214;-74
2024/01/31 02:00:19;;;;;;;17.27;13.97;;;;;;;-1.52;55.67;96596.19;5022930;28;20206;-73
2024/01/31 02:02:44;;;;;;;18.60;14.37;;;;;;;-1.93;56.42;96600.69;5033538;28;20228;-74
2024/01/31 02:05:10;;;;;;;20.67;14.03;;;;;;;-1.70;55.98;96598.38;5028053;28;20313;-74
2024/01/31 02:07:36;;;;;;;20.40;14.10;;;;;;;-1.56;55.53;96587.72;5025274;28;20244;-74
2024/01/31 02:10:02;;;;;;;16.40;12.70;;;;;;;-1.70;56.02;96589.81;5030315;28;20252;-73
2024/01/31 02:12:28;;;;;;;17.67;13.80;;;;;;;-1.73;56.24;96597.63;5028717;28;20226;-74
2024/01/31 02:14:55;;;;;;;19.73;14.70;;;;;;;-1.66;55.83;96593.97;5025260;28;20230;-74
2024/01/31 02:17:20;;;;;;;18.67;13.43;;;;;;;-1.53;55.51;96589.34;5028334;28;20246;-74
2024/01/31 02:19:46;;;;;;;19.93;14.47;;;;;;;-1.58;55.64;96586.91;5054646;28;20306;-73
2024/01/31 02:22:17;;;;;;;19.37;13.60;;;;;;;-1.52;55.19;96584.19;5024297;28;20260;-74
2024/01/31 02:24:42;;;;;;;18.47;14.33;;;;;;;-1.49;55.06;96580.66;5039341;28;20222;-74
2024/01/31 02:27:08;;;;;;;19.37;14.33;;;;;;;-1.72;55.56;96589.00;5024204;28;20193;-73
2024/01/31 02:29:33;;;;;;;19.17;14.50;;;;;;;-2.13;56.68;96593.44;5026971;28;20315;-74
2024/01/31 02:31:58;;;;;;;19.63;14.40;;;;;;;-2.18;57.17;96579.81;5055195;28;20222;-74
2024/01/31 02:34:25;;;;;;;20.67;14.97;;;;;;;-2.12;57.28;96579.66;5024127;28;20226;-72
2024/01/31 02:36:50;;;;;;;22.53;15.57;;;;;;;-2.11;56.98;96577.06;5029637;28;20305;-75
2024/01/31 02:39:16;;;;;;;21.13;15.30;;;;;;;-2.09;57.19;96566.69;5025249;28;20278;-75
2024/01/31 02:41:41;;;;;;;20.50;16.17;;;;;;;-2.15;57.09;96572.84;5056038;28;20213;-74
2024/01/31 02:44:07;;;;;;;23.83;17.30;;;;;;;-1.95;56.48;96579.25;5055067;28;20312;-75
2024/01/31 02:46:32;;;;;;;23.30;17.30;;;;;;;-1.85;56.63;96578.97;5041666;28;20248;-74
2024/01/31 02:49:00;;;;;;;20.57;15.73;;;;;;;-1.69;55.63;96571.69;5048846;28;20222;-75
2024/01/31 02:51:25;;;;;;;25.60;17.70;;;;;;;-1.91;56.35;96576.56;5030595;28;20249;-75
2024/01/31 02:53:51;;;;;;;24.40;17.77;;;;;;;-1.87;56.46;96575.59;5019417;28;20222;-76
2024/01/31 02:56:16;;;;;;;25.80;18.40;;;;;;;-1.94;56.19;96576.63;5031420;28;20311;-76
2024/01/31 02:58:42;;;;;;;26.60;19.73;;;;;;;-2.06;56.51;96574.34;5028966;28;20230;-76
2024/01/31 03:01:07;;;;;;;27.43;19.83;;;;;;;-1.79;56.13;96572.84;5030348;28;20389;-76
2024/01/31 03:03:33;;;;;;;25.00;18.13;;;;;;;-1.93;56.30;96565.44;5021409;28;20227;-77
2024/01/31 03:05:58;;;;;;;28.57;19.43;;;;;;;-1.86;56.05;96581.59;5021728;28;20199;-77
2024/01/31 03:08:24;;;;;;;26.07;18.03;;;;;;;-1.94;56.18;96578.38;5026950;28;20222;-77
2024/01/31 03:10:49;;;;;;;27.83;19.10;;;;;;;-1.88;56.58;96580.78;5024692;28;20230;-77
2024/01/31 03:13:14;;;;;;;23.33;17.83;;;;;;;-1.85;56.22;96578.97;5020066;28;20313;-77
2024/01/31 03:15:40;;;;;;;23.40;17.77;;;;;;;-1.87;56.28;96575.59;5028122;28;20234;-75
2024/01/31 03:18:06;;;;;;;24.40;18.50;;;;;;;-2.04;56.52;96560.53;5028171;28;20198;-76
2024/01/31 03:20:34;;;;;;;24.13;18.03;;;;;;;-1.83;56.22;96561.75;5029847;28;20256;-76
2024/01/31 03:23:00;;;;;;;24.37;17.87;;;;;;;-1.90;55.97;96564.50;5020869;28;20290;-76
2024/01/31 03:25:26;;;;;;;23.73;18.10;;;;;;;-1.90;56.42;96562.75;5040944;28;20225;-76
2024/01/31 03:27:52;;;;;;;23.60;16.63;;;;;;;-1.93;55.93;96565.44;5043842;28;20233;-78
2024/01/31 03:30:17;;;;;;;23.00;17.63;;;;;;;-1.90;55.79;96560.19;5023617;28;20419;-77
2024/01/31 03:32:43;;;;;;;25.37;18.27;;;;;;;-2.05;56.30;96561.44;5023018;28;20187;-78
2024/01/31 03:35:08;;;;;;;22.73;17.70;;;;;;;-1.95;56.02;96559.47;5020021;28;20277;-77
2024/01/31 03:37:34;;;;;;;24.87;18.37;;;;;;;-1.89;55.84;96561.91;5023127;28;20226;-78
2024/01/31 03:39:59;;;;;;;32.17;18.73;;;;;;;-2.00;55.96;96554.44;5024621;28;20238;-76
2024/01/31 03:42:25;;;;;;;25.23;18.37;;;;;;;-2.17;56.49;96564.28;5028751;28;20248;-76
2024/01/31 03:44:50;;;;;;;27.07;18.10;;;;;;;-2.16;56.29;96563.44;5024452;28;20217;-75
2024/01/31 03:47:16;;;;;;;23.43;17.83;;;;;;;-2.10;55.92;96565.00;5022490;28;20227;-75
2024/01/31 03:49:41;;;;;;;24.30;18.83;;;;;;;-1.94;55.75;96555.16;5019448;28;20230;-75
2024/01/31 03:52:07;;;;;;;24.23;17.33;;;;;;;-2.10;56.12;96552.97;5029615;28;20280;-76
2024/01/31 03:54:33;;;;;;;22.83;17.20;;;;;;;-2.07;56.06;96562.34;5024156;28;20238;-75
2024/01/31 03:56:58;;;;;;;25.13;17.33;;;;;;;-2.16;56.11;96576.31;5025569;28;20191;-75
2024/01/31 03:59:24;;;;;;;24.13;16.87;;;;;;;-2.01;55.98;96577.66;5023556;28;20223;-76
2024/01/31 04:01:50;;;;;;;22.77;17.00;;;;;;;-2.07;55.94;96573.50;5025344;28;20241;-76
2024/01/31 04:04:16;;;;;;;22.73;16.37;;;;;;;-2.29;56.61;96573.16;5018918;28;20227;-76
2024/01/31 04:06:41;;;;;;;23.37;16.57;;;;;;;-2.17;55.89;96576.34;5019830;28;20229;-75
2024/01/31 04:09:07;;;;;;;24.97;16.47;;;;;;;-2.15;56.14;96579.72;5055369;28;20275;-74
2024/01/31 04:11:34;;;;;;;23.63;16.60;;;;;;;-2.17;55.98;96574.59;5028779;28;20183;-77
2024/01/31 04:14:01;;;;;;;22.30;15.50;;;;;;;-2.28;56.55;96586.91;5023893;28;20226;-76
2024/01/31 04:16:26;;;;;;;20.30;14.47;;;;;;;-2.24;56.16;96573.06;5023616;28;20218;-76
2024/01/31 04:18:52;;;;;;;19.83;14.93;;;;;;;-2.33;56.18;96584.41;5029095;28;20229;-76
2024/01/31 04:21:19;;;;;;;20.80;15.50;;;;;;;-2.39;56.49;96587.16;5028489;28;20193;-76
2024/01/31 04:23:45;;;;;;;20.00;15.03;;;;;;;-2.36;56.68;96597.38;5024358;28;20193;-75
2024/01/31 04:26:10;;;;;;;19.67;14.60;;;;;;;-2.40;56.51;96582.88;5021227;28;20223;-77
2024/01/31 04:28:36;;;;;;;18.00;14.20;;;;;;;-2.51;56.87;96585.69;5024681;28;20229;-78
2024/01/31 04:31:01;;;;;;;19.37;14.73;;;;;;;-2.29;56.03;96596.38;5025069;28;20230;-78
2024/01/31 04:33:26;;;;;;;19.70;15.20;;;;;;;-2.46;56.37;96590.72;5021931;28;20227;-76
2024/01/31 04:35:52;;;;;;;21.37;15.20;;;;;;;-2.50;56.74;96589.13;5031027;28;20210;-76
2024/01/31 04:38:17;;;;;;;19.70;15.60;;;;;;;-2.39;56.36;96594.03;5021623;28;20226;-75
2024/01/31 04:40:43;;;;;;;20.30;15.63;;;;;;;-2.45;56.65;96589.88;5023800;28;20234;-76
2024/01/31 04:43:08;;;;;;;21.73;15.40;;;;;;;-2.38;56.08;96582.84;5024371;28;20230;-75
2024/01/31 04:45:33;;;;;;;19.17;15.37;;;;;;;-2.39;56.24;96581.16;5021041;28;20322;-76
2024/01/31 04:47:59;;;;;;;20.83;14.93;;;;;;;-2.40;55.99;96582.88;5025480;28;20186;-77
2024/01/31 04:50:24;;;;;;;22.30;14.97;;;;;;;-2.49;56.02;96581.34;5027635;28;20222;-76
2024/01/31 04:52:50;;;;;;;19.97;15.13;;;;;;;-2.53;56.20;96592.59;5025510;28;20219;-75
2024/01/31 04:55:15;;;;;;;20.77;14.27;;;;;;;-2.48;55.83;96585.63;5023437;28;20227;-77
2024/01/31 04:57:41;;;;;;;19.83;14.40;;;;;;;-2.40;55.34;96574.31;5025903;28;20222;-77
2024/01/31 05:00:11;;;;;;;19.83;15.47;;;;;;;-2.27;55.25;96581.72;5030160;28;20204;-78
2024/01/31 05:02:37;;;;;;;23.57;17.63;;;;;;;-2.18;55.11;96574.66;5025530;28;20193;-78
2024/01/31 05:05:02;;;;;;;21.80;16.73;;;;;;;-2.30;55.32;96575.78;5028039;28;20209;-78
2024/01/31 05:07:28;;;;;;;22.13;16.63;;;;;;;-2.46;55.99;96570.13;5028528;28;20218;-81
2024/01/31 05:09:53;;;;;;;21.07;17.53;;;;;;;-2.27;55.56;96578.31;5033075;28;20230;-79
2024/01/31 05:12:19;;;;;;;26.60;18.20;;;;;;;-2.32;55.99;96572.41;5034153;28;20427;-78
2024/01/31 05:14:44;;;;;;;25.63;17.00;;;;;;;-2.48;55.91;96564.19;5054189;28;20226;-77
2024/01/31 05:17:15;;;;;;;22.77;16.53;;;;;;;-2.61;56.41;96571.34;5018684;28;20320;-77
2024/01/31 05:19:41;;;;;;;23.87;16.77;;;;;;;-2.40;55.90;96570.00;5020699;28;20272;-78
2024/01/31 05:22:06;;;;;;;22.80;16.20;;;;;;;-2.40;55.87;96572.59;5018614;28;20222;-77
2024/01/31 05:24:32;;;;;;;23.70;16.90;;;;;;;-2.44;56.02;96573.53;5026495;28;20382;-76
2024/01/31 05:27:03;;;;;;;21.67;15.43;;;;;;;-2.33;55.95;96581.00;5030064;28;20197;-77
2024/01/31 05:29:31;;;;;;;24.17;16.40;;;;;;;-2.20;56.12;96577.25;5031631;28;20281;-78
2024/01/31 05:31:56;;;;;;;25.27;16.93;;;;;;;-2.57;56.68;96579.81;5023689;28;20308;-76
2024/01/31 05:34:26;;;;;;;19.50;15.33;;;;;;;-2.50;56.56;96596.84;5028570;28;20329;-76
2024/01/31 05:36:51;;;;;;;21.50;15.57;;;;;;;-2.36;56.11;96599.94;5033058;28;20214;-76
2024/01/31 05:39:17;;;;;;;20.07;15.87;;;;;;;-2.43;55.91;96590.69;5032975;28;20213;-76
2024/01/31 05:41:43;;;;;;;22.50;16.00;;;;;;;-2.37;56.15;96593.13;5048961;28;20268;-76
2024/01/31 05:44:09;;;;;;;25.23;16.30;;;;;;;-2.41;56.20;96606.09;5053028;28;20344;-77
2024/01/31 05:46:35;;;;;;;21.57;16.40;;;;;;;-2.48;55.88;96597.66;5047525;28;20226;-77
2024/01/31 05:49:02;;;;;;;20.83;16.33;;;;;;;-2.40;55.96;96600.06;5047258;28;20225;-76
2024/01/31 05:51:28;;;;;;;24.27;15.87;;;;;;;-2.45;55.88;96606.16;5042411;28;20237;-75
2024/01/31 05:53:53;;;;;;;27.03;17.10;;;;;;;-2.15;54.88;96608.09;5048318;28;20220;-75
2024/01/31 05:56:19;;;;;;;25.33;18.83;;;;;;;-2.50;55.69;96607.16;5049968;28;20226;-76
2024/01/31 05:58:44;;;;;;;31.13;19.37;;;;;;;-2.78;57.16;96610.31;5050421;28;20241;-77
2024/01/31 06:01:10;;;;;;;29.23;20.50;;;;;;;-2.80;57.22;96601.78;5050708;28;20221;-77
2024/01/31 06:03:35;;;;;;;27.13;19.87;;;;;;;-2.81;57.68;96618.09;5041213;28;20232;-76
2024/01/31 06:06:01;;;;;;;32.17;21.57;;;;;;;-3.01;58.26;96617.66;5052315;28;20197;-78
2024/01/31 06:08:26;;;;;;;33.97;22.03;;;;;;;-2.79;57.62;96623.22;5053712;28;20190;-77
2024/01/31 06:10:58;;;;;;;33.53;23.67;;;;;;;-3.02;57.88;96610.81;5050861;28;20282;-78
2024/01/31 06:13:24;;;;;;;32.70;22.90;;;;;;;-2.93;58.05;96611.47;5047867;28;20225;-76
2024/01/31 06:15:50;;;;;;;34.87;24.77;;;;;;;-3.24;58.46;96608.66;5042490;28;20233;-78
2024/01/31 06:18:15;;;;;;;39.83;27.27;;;;;;;-3.24;58.53;96608.66;5047280;28;20190;-72
2024/01/31 06:20:43;;;;;;;41.27;30.00;;;;;;;-3.41;59.85;96619.25;5044084;28;20271;-73
2024/01/31 06:23:10;;;;;;;40.80;27.63;;;;;;;-2.85;58.53;96615.63;5038806;28;20275;-72
2024/01/31 06:25:38;;;;;;;41.17;28.20;;;;;;;-3.01;58.44;96607.38;5036932;28;20230;-73
2024/01/31 06:28:06;;;;;;;35.50;28.30;;;;;;;-2.89;58.26;96605.41;5032897;28;20221;-74
2024/01/31 06:30:33;;;;;;;38.63;28.43;;;;;;;-2.69;57.63;96604.13;5039873;28;20217;-74
2024/01/31 06:33:06;;;;;;;42.07;28.23;;;;;;;-2.35;56.66;96608.53;5039430;28;20181;-76
2024/01/31 06:35:32;;;;;;;40.93;28.73;;;;;;;-2.54;57.58;96613.22;5041705;28;20308;-77
2024/01/31 06:37:57;;;;;;;41.17;27.20;;;;;;;-2.53;57.53;96609.78;5035895;28;20311;-77
2024/01/31 06:40:23;;;;;;;37.73;27.13;;;;;;;-2.52;57.15;96612.31;5035187;28;20230;-75
2024/01/31 06:42:49;;;;;;;33.57;24.77;;;;;;;-2.32;56.14;96618.78;5040185;28;20233;-72
2024/01/31 06:45:15;;;;;;;34.80;24.57;;;;;;;-2.42;56.44;96618.13;5035936;28;20186;-73
2024/01/31 06:47:40;;;;;;;31.30;22.27;;;;;;;-2.27;55.64;96622.09;5039885;28;20190;-73
2024/01/31 06:50:06;;;;;;;26.17;18.47;;;;;;;-2.24;54.83;96617.72;5032564;28;20223;-73
2024/01/31 06:52:32;;;;;;;18.77;14.83;;;;;;;-2.12;53.13;96611.41;5058580;28;20218;-72
2024/01/31 06:54:57;;;;;;;21.20;14.50;;;;;;;-2.04;52.97;96613.81;5041813;28;20225;-71
2024/01/31 06:57:22;;;;;;;17.70;13.47;;;;;;;-1.96;52.16;96605.91;5046551;28;20218;-72
2024/01/31 06:59:48;;;;;;;16.27;10.73;;;;;;;-1.97;51.42;96615.38;5044495;28;20190;-72
2024/01/31 07:02:13;;;;;;;14.00;9.70;;;;;;;-1.66;50.48;96615.47;5041068;28;20209;-73
2024/01/31 07:04:39;;;;;;;15.83;9.33;;;;;;;-1.85;51.25;96615.06;5027081;28;20310;-72
2024/01/31 07:07:04;;;;;;;20.40;9.37;;;;;;;-1.60;50.23;96609.31;5046769;28;20224;-72
2024/01/31 07:09:32;;;;;;;18.33;8.67;;;;;;;-1.62;50.44;96599.03;5045320;28;20228;-71
2024/01/31 07:11:58;;;;;;;19.37;10.80;;;;;;;-1.56;50.10;96605.75;5038753;28;20186;-68
2024/01/31 07:14:23;;;;;;;12.17;8.90;;;;;;;-1.65;50.20;96601.69;5045569;28;20241;-69
2024/01/31 07:16:48;;;;;;;14.83;9.77;;;;;;;-1.52;49.89;96589.34;5037364;28;20222;-69
2024/01/31 07:19:14;;;;;;;14.27;9.63;;;;;;;-1.55;50.00;96592.00;5042355;28;20312;-70
2024/01/31 07:21:39;;;;;;;17.03;10.20;;;;;;;-1.36;49.99;96594.94;5042836;28;20216;-69
2024/01/31 07:24:05;;;;;;;14.57;10.10;;;;;;;-1.31;49.74;96595.66;5047214;28;20186;-70
2024/01/31 07:26:30;;;;;;;15.47;10.17;;;;;;;-1.13;49.29;96604.63;5046122;28;20205;-68
2024/01/31 07:28:56;;;;;;;19.93;10.63;;;;;;;-1.30;50.16;96604.25;5047109;28;20225;-69
2024/01/31 07:31:21;;;;;;;22.60;12.20;;;;;;;-1.18;50.12;96602.16;5044410;28;20236;-68
2024/01/31 07:33:47;;;;;;;22.63;13.80;;;;;;;-1.06;49.97;96595.00;5039051;28;20226;-67
2024/01/31 07:36:13;;;;;;;20.90;15.00;;;;;;;-1.00;49.70;96592.22;5045939;28;20217;-77
2024/01/31 07:38:46;;;;;;;28.20;15.87;;;;;;;-0.82;50.01;96594.28;5040111;28;20278;-74
2024/01/31 07:41:12;;;;;;;30.53;16.73;;;;;;;-0.91;50.27;96591.97;5040819;28;20252;-76
2024/01/31 07:43:38;;;;;;;26.67;17.67;;;;;;;-0.98;49.87;96593.88;5042224;28;20230;-79
2024/01/31 07:46:04;;;;;;;25.67;18.20;;;;;;;-1.11;50.50;96597.69;5045492;28;20310;-81
2024/01/31 07:48:30;;;;;;;25.83;16.60;;;;;;;-0.59;49.31;96593.59;5048454;28;20225;-76
2024/01/31 07:51:05;;;;;;;25.53;16.30;;;;;;;-1.12;50.88;96601.16;5044764;28;20272;-80
2024/01/31 07:53:32;;;;;;;26.07;17.77;;;;;;;-0.99;50.55;96593.91;5044846;28;20221;-77
2024/01/31 07:55:57;;;;;;;28.70;17.17;;;;;;;-1.16;50.71;96594.38;5046966;28;20217;-72
2024/01/31 07:58:22;;;;;;;24.20;17.03;;;;;;;-0.71;49.98;96583.66;5043343;28;20224;-75
2024/01/31 08:00:48;;;;;;;28.37;18.17;;;;;;;-0.70;50.05;96581.00;5039260;28;20360;-73
2024/01/31 08:03:13;;;;;;;27.83;18.40;;;;;;;-0.69;49.82;96585.31;5041581;28;20196;-71
2024/01/31 08:05:39;;;;;;;30.57;19.07;;;;;;;-0.58;49.95;96595.31;5047092;28;20227;-72
2024/01/31 08:08:04;;;;;;;28.77;18.53;;;;;;;-0.50;49.70;96587.34;5043866;28;20221;-77
2024/01/31 08:10:30;;;;;;;27.37;18.73;;;;;;;-0.15;49.42;96580.25;5047766;28;20232;-70
2024/01/31 08:12:56;;;;;;;34.73;19.93;;;;;;;-0.54;49.69;96589.16;5042930;28;20237;-74
2024/01/31 08:15:21;;;;;;;25.93;18.30;;;;;;;-0.62;50.33;96578.19;5047239;28;20221;-74
2024/01/31 08:17:47;;;;;;;30.67;19.20;;;;;;;-0.74;50.43;96569.09;5045516;28;20192;-72
2024/01/31 08:20:13;;;;;;;29.33;19.13;;;;;;;-0.91;50.95;96571.28;5046587;28;20278;-72
2024/01/31 08:22:38;;;;;;;22.87;16.93;;;;;;;-0.56;50.23;96575.47;5046659;28;20221;-79
2024/01/31 08:25:04;;;;;;;28.50;18.83;;;;;;;-0.63;49.87;96573.94;5047008;28;20300;-75
2024/01/31 08:27:30;;;;;;;24.30;17.03;;;;;;;-0.41;49.65;96568.13;5049900;28;20366;-74
2024/01/31 08:29:56;;;;;;;29.63;18.53;;;;;;;-0.62;50.25;96565.28;5044115;28;20241;-76
2024/01/31 08:32:21;;;;;;;27.60;19.33;;;;;;;-0.31;50.09;96570.38;5041149;28;20252;-79
2024/01/31 08:34:47;;;;;;;27.53;18.07;;;;;;;-0.17;50.08;96559.59;5045627;28;20288;-78
2024/01/31 08:37:12;;;;;;;31.17;19.20;;;;;;;-0.21;49.98;96558.00;5045013;28;20241;-79
2024/01/31 08:39:38;;;;;;;31.17;21.10;;;;;;;-0.30;50.52;96568.63;5044351;28;20221;-71
2024/01/31 08:42:04;;;;;;;34.70;22.43;;;;;;;0.12;49.39;96568.16;5044224;28;20211;-73
2024/01/31 08:44:29;;;;;;;33.23;22.83;;;;;;;0.04;49.47;96562.38;5047082;28;20207;-73
2024/01/31 08:46:55;;;;;;;40.73;23.10;;;;;;;-0.41;50.93;96563.78;5041568;28;20225;-74
2024/01/31 08:49:21;;;;;;;37.70;24.17;;;;;;;-0.18;50.56;96550.16;5045381;28;20221;-76
2024/01/31 08:51:49;;;;;;;33.97;21.73;;;;;;;0.08;49.96;96561.38;5044553;28;20225;-71
2024/01/31 08:54:14;;;;;;;35.03;23.27;;;;;;;0.21;49.44;96547.16;5046570;28;20198;-75
2024/01/31 08:56:40;;;;;;;37.87;23.00;;;;;;;0.39;49.45;96548.28;5044185;28;20196;-76
2024/01/31 08:59:05;;;;;;;38.70;25.60;;;;;;;0.50;49.39;96553.91;5046072;28;20226;-76
2024/01/31 09:01:31;;;;;;;40.70;26.93;;;;;;;0.56;49.13;96533.03;5050159;28;20232;-70
2024/01/31 09:03:56;;;;;;;40.03;25.30;;;;;;;0.92;48.60;96535.19;5043192;28;20221;-71
2024/01/31 09:06:22;;;;;;;34.50;24.73;;;;;;;1.04;48.56;96533.88;5048057;28;20222;-73
2024/01/31 09:08:48;;;;;;;38.27;25.13;;;;;;;0.91;48.69;96520.56;5045282;28;20194;-74
2024/01/31 09:11:14;;;;;;;38.70;25.33;;;;;;;0.85;48.53;96529.38;5041671;28;20225;-79
2024/01/31 09:13:41;;;;;;;35.07;24.50;;;;;;;0.79;49.13;96529.59;5044537;28;20241;-73
2024/01/31 09:16:06;;;;;;;35.30;24.70;;;;;;;0.91;48.85;96525.75;5046619;28;20248;-78
2024/01/31 09:18:32;;;;;;;36.60;24.80;;;;;;;1.00;48.79;96521.97;5047456;28;20222;-78
2024/01/31 09:20:57;;;;;;;37.40;24.20;;;;;;;1.23;48.91;96518.50;5039588;28;20185;-74
2024/01/31 09:23:23;;;;;;;40.13;23.80;;;;;;;1.30;48.30;96514.78;5046695;28;20229;-74
2024/01/31 09:25:49;;;;;;;35.17;25.23;;;;;;;1.35;48.22;96515.44;5042766;28;20236;-79
2024/01/31 09:28:15;;;;;;;35.33;25.27;;;;;;;1.47;48.10;96508.94;5048627;28;20236;-72
2024/01/31 09:30:43;;;;;;;35.63;25.83;;;;;;;1.58;48.10;96501.59;5045815;28;20218;-78
2024/01/31 09:33:09;;;;;;;33.07;24.10;;;;;;;1.81;47.48;96490.28;5041316;28;20193;-78
2024/01/31 09:35:34;;;;;;;35.07;23.67;;;;;;;1.76;47.34;96485.31;5052486;28;20213;-74
2024/01/31 09:38:00;;;;;;;36.17;24.57;;;;;;;1.87;47.18;96476.22;5045055;28;20225;-74
2024/01/31 09:40:25;;;;;;;37.60;24.23;;;;;;;1.74;46.91;96475.91;5045844;28;20271;-77
2024/01/31 09:42:51;;;;;;;35.33;24.60;;;;;;;1.38;47.69;96476.44;5039788;28;20237;-77
2024/01/31 09:45:17;;;;;;;36.33;24.33;;;;;;;1.51;47.40;96476.81;5047227;28;20214;-73
2024/01/31 09:47:45;;;;;;;34.43;23.30;;;;;;;1.74;47.34;96461.19;5042248;28;20220;-74
2024/01/31 09:50:10;;;;;;;30.90;24.27;;;;;;;1.84;47.45;96465.97;5043816;28;20229;-75
2024/01/31 09:52:39;;;;;;;35.97;24.17;;;;;;;1.88;47.02;96464.97;5043908;28;20286;-77
2024/01/31 09:55:09;;;;;;;36.33;23.63;;;;;;;2.31;46.64;96463.16;5043317;28;20308;-70
2024/01/31 09:57:34;;;;;;;36.67;25.73;;;;;;;2.14;46.80;96443.13;5024605;28;20238;-70
2024/01/31 10:00:01;;;;;;;40.23;26.17;;;;;;;2.48;46.29;96445.06;5046514;28;20240;-73
2024/01/31 10:02:29;;;;;;;35.27;23.67;;;;;;;2.56;45.90;96437.78;5043162;28;20190;-71
2024/01/31 10:04:54;;;;;;;37.07;25.00;;;;;;;2.61;45.85;96440.19;5044977;28;20226;-74
2024/01/31 10:07:24;;;;;;;35.60;25.33;;;;;;;2.77;45.54;96442.94;5043999;28;20230;-74
2024/01/31 10:09:53;;;;;;;36.20;25.63;;;;;;;2.88;44.56;96432.88;5041627;28;20226;-71
2024/01/31 10:12:20;;;;;;;35.13;25.47;;;;;;;2.96;46.20;96430.78;5041327;28;20182;-72
2024/01/31 10:14:48;;;;;;;37.77;24.83;;;;;;;2.95;45.38;96426.50;5041972;28;20297;-74
2024/01/31 10:17:14;;;;;;;35.00;25.00;;;;;;;3.09;44.35;96429.31;5041614;28;20233;-71
2024/01/31 10:19:39;;;;;;;36.93;25.97;;;;;;;3.31;43.76;96425.69;5040996;28;20308;-71
2024/01/31 10:22:05;;;;;;;34.37;24.87;;;;;;;3.11;44.44;96423.22;5048432;28;20289;-73
2024/01/31 10:24:30;;;;;;;35.87;26.90;;;;;;;2.97;44.65;96410.88;5047042;28;20255;-80
2024/01/31 10:26:56;;;;;;;36.27;24.77;;;;;;;3.19;44.41;96401.13;5049933;28;20236;-75
2024/01/31 10:29:21;;;;;;;34.47;25.13;;;;;;;3.36;43.67;96397.72;5044445;28;20229;-75
2024/01/31 10:31:49;;;;;;;31.60;24.77;;;;;;;3.33;43.46;96397.88;5047058;28;20222;-76
2024/01/31 10:34:15;;;;;;;31.17;24.47;;;;;;;3.68;42.34;96384.91;5049323;28;20236;-76
2024/01/31 10:36:41;;;;;;;35.07;25.10;;;;;;;3.49;43.16;96397.97;5046892;28;20222;-76
2024/01/31 10:39:10;;;;;;;35.43;24.30;;;;;;;3.38;43.04;96389.84;5049699;28;20190;-76
2024/01/31 10:41:40;;;;;;;35.10;24.50;;;;;;;3.50;42.61;96377.09;5051817;28;20193;-75
2024/01/31 10:44:10;;;;;;;32.77;23.73;;;;;;;3.44;42.35;96377.38;5046691;28;20221;-75
2024/01/31 10:46:36;;;;;;;33.03;24.23;;;;;;;3.69;42.35;96366.63;5045455;28;20218;-77
2024/01/31 10:49:01;;;;;;;35.00;23.87;;;;;;;3.78;42.31;96362.72;5047814;28;20283;-75
2024/01/31 10:51:29;;;;;;;41.37;23.93;;;;;;;4.18;41.01;96363.28;5049390;28;20225;-76
2024/01/31 10:53:56;;;;;;;33.50;22.83;;;;;;;4.05;41.16;96354.44;5049146;28;20213;-76
2024/01/31 10:56:24;;;;;;;35.53;24.03;;;;;;;3.88;41.39;96352.69;5047745;28;20248;-76
2024/01/31 10:58:50;;;;;;;36.80;24.40;;;;;;;4.13;41.25;96357.47;5045317;28;20222;-75
2024/01/31 11:01:17;;;;;;;37.17;24.67;;;;;;;4.12;41.03;96351.44;5047040;28;20245;-77
2024/01/31 11:03:46;;;;;;;32.13;23.17;;;;;;;4.18;40.72;96347.66;5029548;28;20216;-74
2024/01/31 11:06:11;;;;;;;34.27;23.20;;;;;;;4.49;40.42;96325.19;5044482;28;20190;-75
2024/01/31 11:08:40;;;;;;;36.13;23.93;;;;;;;4.62;39.89;96326.22;5044841;28;20198;-74
2024/01/31 11:11:11;;;;;;;36.67;23.67;;;;;;;4.74;39.89;96330.75;5050382;28;20221;-76
2024/01/31 11:13:37;;;;;;;34.77;25.50;;;;;;;4.70;39.65;96326.63;5048582;28;20230;-75